sensor_id;sensor_type;location;lat;lon;timestamp;pressure;altitude;pressure_sealevel;temperature
12061;BMP180;6091;51.432;6.880;2023-02-28T00:01:31;102246.00;;;22.30
12061;BMP180;6091;51.432;6.880;2023-02-28T00:03:59;102243.00;;;22.30
12061;BMP180;6091;51.432;6.880;2023-02-28T00:06:26;102233.00;;;22.30
12061;BMP180;6091;51.432;6.880;2023-02-28T00:08:54;102236.00;;;22.30
12061;BMP180;6091;51.432;6.880;2023-02-28T00:11:21;102236.00;;;22.30
12061;BMP180;6091;51.432;6.880;2023-02-28T00:13:48;102243.00;;;22.20
12061;BMP180;6091;51.432;6.880;2023-02-28T00:16:20;102242.00;;;22.20
12061;BMP180;6091;51.432;6.880;2023-02-28T00:18:47;102236.00;;;22.20
12061;BMP180;6091;51.432;6.880;2023-02-28T00:21:16;102233.00;;;22.20
12061;BMP180;6091;51.432;6.880;2023-02-28T00:23:43;102235.00;;;22.20
12061;BMP180;6091;51.432;6.880;2023-02-28T00:26:11;102231.00;;;22.20
12061;BMP180;6091;51.432;6.880;2023-02-28T00:28:38;102235.00;;;22.20
12061;BMP180;6091;51.432;6.880;2023-02-28T00:31:05;102230.00;;;22.10
12061;BMP180;6091;51.432;6.880;2023-02-28T00:33:32;102227.00;;;22.10
12061;BMP180;6091;51.432;6.880;2023-02-28T00:36:10;102235.00;;;22.10
12061;BMP180;6091;51.432;6.880;2023-02-28T00:38:39;102238.00;;;22.10
12061;BMP180;6091;51.432;6.880;2023-02-28T00:41:08;102238.00;;;22.10
12061;BMP180;6091;51.432;6.880;2023-02-28T00:43:38;102238.00;;;22.10
12061;BMP180;6091;51.432;6.880;2023-02-28T00:46:07;102221.00;;;22.10
12061;BMP180;6091;51.432;6.880;2023-02-28T00:48:34;102233.00;;;22.00
12061;BMP180;6091;51.432;6.880;2023-02-28T00:51:02;102236.00;;;22.00
12061;BMP180;6091;51.432;6.880;2023-02-28T00:53:29;102242.00;;;22.00
12061;BMP180;6091;51.432;6.880;2023-02-28T00:55:56;102239.00;;;22.00
12061;BMP180;6091;51.432;6.880;2023-02-28T00:58:23;102243.00;;;22.00
12061;BMP180;6091;51.432;6.880;2023-02-28T01:00:52;102243.00;;;22.00
12061;BMP180;6091;51.432;6.880;2023-02-28T01:03:20;102249.00;;;22.00
12061;BMP180;6091;51.432;6.880;2023-02-28T01:05:47;102253.00;;;22.00
12061;BMP180;6091;51.432;6.880;2023-02-28T01:08:15;102249.00;;;22.00
12061;BMP180;6091;51.432;6.880;2023-02-28T01:10:42;102248.00;;;21.90
12061;BMP180;6091;51.432;6.880;2023-02-28T01:13:10;102253.00;;;21.90
12061;BMP180;6091;51.432;6.880;2023-02-28T01:15:42;102255.00;;;21.90
12061;BMP180;6091;51.432;6.880;2023-02-28T01:18:10;102248.00;;;21.90
12061;BMP180;6091;51.432;6.880;2023-02-28T01:20:38;102247.00;;;21.70
12061;BMP180;6091;51.432;6.880;2023-02-28T01:23:05;102255.00;;;21.90
12061;BMP180;6091;51.432;6.880;2023-02-28T01:25:35;102257.00;;;21.90
12061;BMP180;6091;51.432;6.880;2023-02-28T01:28:02;102256.00;;;21.80
12061;BMP180;6091;51.432;6.880;2023-02-28T01:30:30;102249.00;;;21.80
12061;BMP180;6091;51.432;6.880;2023-02-28T01:32:57;102251.00;;;21.80
12061;BMP180;6091;51.432;6.880;2023-02-28T01:35:25;102256.00;;;21.80
12061;BMP180;6091;51.432;6.880;2023-02-28T01:37:52;102263.00;;;21.80
12061;BMP180;6091;51.432;6.880;2023-02-28T01:40:20;102253.00;;;21.80
12061;BMP180;6091;51.432;6.880;2023-02-28T01:42:47;102251.00;;;21.80
12061;BMP180;6091;51.432;6.880;2023-02-28T01:45:25;102244.00;;;21.80
12061;BMP180;6091;51.432;6.880;2023-02-28T01:48:07;102247.00;;;21.70
12061;BMP180;6091;51.432;6.880;2023-02-28T01:50:41;102240.00;;;21.70
12061;BMP180;6091;51.432;6.880;2023-02-28T01:53:23;102239.00;;;21.70
12061;BMP180;6091;51.432;6.880;2023-02-28T01:55:53;102233.00;;;21.70
12061;BMP180;6091;51.432;6.880;2023-02-28T01:58:21;102233.00;;;21.70
12061;BMP180;6091;51.432;6.880;2023-02-28T02:00:48;102231.00;;;21.70
12061;BMP180;6091;51.432;6.880;2023-02-28T02:03:19;102225.00;;;21.70
12061;BMP180;6091;51.432;6.880;2023-02-28T02:05:47;102232.00;;;21.70
12061;BMP180;6091;51.432;6.880;2023-02-28T02:08:25;102227.00;;;21.70
12061;BMP180;6091;51.432;6.880;2023-02-28T02:10:57;102222.00;;;21.70
12061;BMP180;6091;51.432;6.880;2023-02-28T02:13:48;102224.00;;;21.60
12061;BMP180;6091;51.432;6.880;2023-02-28T02:28:54;102209.00;;;21.50
12061;BMP180;6091;51.432;6.880;2023-02-28T02:31:54;102200.00;;;21.50
12061;BMP180;6091;51.432;6.880;2023-02-28T02:40:13;102198.00;;;21.50
12061;BMP180;6091;51.432;6.880;2023-02-28T02:43:09;102196.00;;;21.50
12061;BMP180;6091;51.432;6.880;2023-02-28T02:45:46;102197.00;;;21.50
12061;BMP180;6091;51.432;6.880;2023-02-28T02:48:19;102205.00;;;21.50
12061;BMP180;6091;51.432;6.880;2023-02-28T02:50:55;102201.00;;;21.50
12061;BMP180;6091;51.432;6.880;2023-02-28T02:53:50;102206.00;;;21.50
12061;BMP180;6091;51.432;6.880;2023-02-28T02:56:23;102201.00;;;21.40
12061;BMP180;6091;51.432;6.880;2023-02-28T02:58:54;102213.00;;;21.40
12061;BMP180;6091;51.432;6.880;2023-02-28T03:01:27;102212.00;;;21.50
12061;BMP180;6091;51.432;6.880;2023-02-28T03:04:00;102201.00;;;21.40
12061;BMP180;6091;51.432;6.880;2023-02-28T03:06:28;102211.00;;;21.40
12061;BMP180;6091;51.432;6.880;2023-02-28T03:08:55;102209.00;;;21.40
12061;BMP180;6091;51.432;6.880;2023-02-28T03:11:23;102214.00;;;21.40
12061;BMP180;6091;51.432;6.880;2023-02-28T03:20:44;102204.00;;;21.30
12061;BMP180;6091;51.432;6.880;2023-02-28T03:23:41;102194.00;;;21.30
12061;BMP180;6091;51.432;6.880;2023-02-28T03:26:26;102196.00;;;21.30
12061;BMP180;6091;51.432;6.880;2023-02-28T03:29:13;102199.00;;;21.30
12061;BMP180;6091;51.432;6.880;2023-02-28T03:32:05;102201.00;;;21.30
12061;BMP180;6091;51.432;6.880;2023-02-28T03:34:39;102196.00;;;21.30
12061;BMP180;6091;51.432;6.880;2023-02-28T03:37:16;102209.00;;;21.30
12061;BMP180;6091;51.432;6.880;2023-02-28T03:40:00;102201.00;;;21.30
12061;BMP180;6091;51.432;6.880;2023-02-28T03:42:31;102204.00;;;21.30
12061;BMP180;6091;51.432;6.880;2023-02-28T03:45:05;102207.00;;;21.30
12061;BMP180;6091;51.432;6.880;2023-02-28T03:47:44;102219.00;;;21.30
12061;BMP180;6091;51.432;6.880;2023-02-28T03:50:18;102216.00;;;21.30
12061;BMP180;6091;51.432;6.880;2023-02-28T03:53:19;102213.00;;;21.20
12061;BMP180;6091;51.432;6.880;2023-02-28T03:56:06;102214.00;;;21.20
12061;BMP180;6091;51.432;6.880;2023-02-28T03:58:47;102210.00;;;21.20
12061;BMP180;6091;51.432;6.880;2023-02-28T04:01:40;102215.00;;;21.20
12061;BMP180;6091;51.432;6.880;2023-02-28T04:04:10;102208.00;;;21.20
12061;BMP180;6091;51.432;6.880;2023-02-28T04:06:39;102205.00;;;21.20
12061;BMP180;6091;51.432;6.880;2023-02-28T04:09:08;102206.00;;;21.20
12061;BMP180;6091;51.432;6.880;2023-02-28T04:11:42;102207.00;;;21.20
12061;BMP180;6091;51.432;6.880;2023-02-28T04:14:11;102208.00;;;21.20
12061;BMP180;6091;51.432;6.880;2023-02-28T04:16:41;102206.00;;;21.20
12061;BMP180;6091;51.432;6.880;2023-02-28T04:19:11;102210.00;;;21.20
12061;BMP180;6091;51.432;6.880;2023-02-28T04:21:50;102215.00;;;21.10
12061;BMP180;6091;51.432;6.880;2023-02-28T04:24:25;102212.00;;;21.10
12061;BMP180;6091;51.432;6.880;2023-02-28T04:26:55;102210.00;;;21.10
12061;BMP180;6091;51.432;6.880;2023-02-28T04:29:31;102214.00;;;21.10
12061;BMP180;6091;51.432;6.880;2023-02-28T04:32:02;102211.00;;;21.10
12061;BMP180;6091;51.432;6.880;2023-02-28T04:34:31;102215.00;;;21.10
12061;BMP180;6091;51.432;6.880;2023-02-28T04:37:00;102217.00;;;21.10
12061;BMP180;6091;51.432;6.880;2023-02-28T04:39:43;102225.00;;;21.10
12061;BMP180;6091;51.432;6.880;2023-02-28T04:42:11;102229.00;;;21.10
12061;BMP180;6091;51.432;6.880;2023-02-28T04:44:38;102220.00;;;21.10
12061;BMP180;6091;51.432;6.880;2023-02-28T04:47:05;102221.00;;;21.10
12061;BMP180;6091;51.432;6.880;2023-02-28T04:49:32;102225.00;;;21.10
12061;BMP180;6091;51.432;6.880;2023-02-28T04:51:59;102235.00;;;21.00
12061;BMP180;6091;51.432;6.880;2023-02-28T04:54:26;102231.00;;;21.00
12061;BMP180;6091;51.432;6.880;2023-02-28T04:56:54;102230.00;;;21.00
12061;BMP180;6091;51.432;6.880;2023-02-28T04:59:22;102231.00;;;21.00
12061;BMP180;6091;51.432;6.880;2023-02-28T05:01:49;102224.00;;;21.00
12061;BMP180;6091;51.432;6.880;2023-02-28T05:04:17;102221.00;;;21.00
12061;BMP180;6091;51.432;6.880;2023-02-28T05:06:44;102223.00;;;21.00
12061;BMP180;6091;51.432;6.880;2023-02-28T05:09:11;102224.00;;;21.00
12061;BMP180;6091;51.432;6.880;2023-02-28T05:11:39;102226.00;;;21.00
12061;BMP180;6091;51.432;6.880;2023-02-28T05:14:13;102230.00;;;21.00
12061;BMP180;6091;51.432;6.880;2023-02-28T05:16:41;102232.00;;;20.90
12061;BMP180;6091;51.432;6.880;2023-02-28T05:19:08;102235.00;;;20.90
12061;BMP180;6091;51.432;6.880;2023-02-28T05:21:41;102238.00;;;21.00
12061;BMP180;6091;51.432;6.880;2023-02-28T05:24:14;102240.00;;;20.90
12061;BMP180;6091;51.432;6.880;2023-02-28T05:26:43;102233.00;;;20.90
12061;BMP180;6091;51.432;6.880;2023-02-28T05:29:10;102238.00;;;20.90
12061;BMP180;6091;51.432;6.880;2023-02-28T05:31:37;102239.00;;;20.90
12061;BMP180;6091;51.432;6.880;2023-02-28T05:34:05;102236.00;;;20.90
12061;BMP180;6091;51.432;6.880;2023-02-28T05:36:32;102227.00;;;20.90
12061;BMP180;6091;51.432;6.880;2023-02-28T05:38:59;102240.00;;;20.90
12061;BMP180;6091;51.432;6.880;2023-02-28T05:41:26;102241.00;;;20.90
12061;BMP180;6091;51.432;6.880;2023-02-28T05:43:54;102235.00;;;20.90
12061;BMP180;6091;51.432;6.880;2023-02-28T05:46:21;102250.00;;;20.90
12061;BMP180;6091;51.432;6.880;2023-02-28T05:48:48;102252.00;;;20.90
12061;BMP180;6091;51.432;6.880;2023-02-28T05:51:16;102249.00;;;20.90
12061;BMP180;6091;51.432;6.880;2023-02-28T05:53:44;102248.00;;;20.90
12061;BMP180;6091;51.432;6.880;2023-02-28T05:56:11;102247.00;;;20.80
12061;BMP180;6091;51.432;6.880;2023-02-28T05:58:38;102255.00;;;20.80
12061;BMP180;6091;51.432;6.880;2023-02-28T06:01:25;102256.00;;;20.80
12061;BMP180;6091;51.432;6.880;2023-02-28T06:03:59;102248.00;;;20.80
12061;BMP180;6091;51.432;6.880;2023-02-28T06:06:28;102259.00;;;20.80
12061;BMP180;6091;51.432;6.880;2023-02-28T06:08:57;102265.00;;;20.80
12061;BMP180;6091;51.432;6.880;2023-02-28T06:11:24;102268.00;;;20.80
12061;BMP180;6091;51.432;6.880;2023-02-28T06:13:59;102271.00;;;20.80
12061;BMP180;6091;51.432;6.880;2023-02-28T06:16:29;102274.00;;;20.80
12061;BMP180;6091;51.432;6.880;2023-02-28T06:19:02;102272.00;;;20.80
12061;BMP180;6091;51.432;6.880;2023-02-28T06:21:31;102269.00;;;20.70
12061;BMP180;6091;51.432;6.880;2023-02-28T06:23:59;102276.00;;;20.70
12061;BMP180;6091;51.432;6.880;2023-02-28T06:26:26;102273.00;;;20.70
12061;BMP180;6091;51.432;6.880;2023-02-28T06:28:54;102282.00;;;20.80
12061;BMP180;6091;51.432;6.880;2023-02-28T06:31:22;102278.00;;;20.70
12061;BMP180;6091;51.432;6.880;2023-02-28T06:33:49;102279.00;;;20.70
12061;BMP180;6091;51.432;6.880;2023-02-28T06:36:17;102286.00;;;20.80
12061;BMP180;6091;51.432;6.880;2023-02-28T06:38:45;102284.00;;;20.80
12061;BMP180;6091;51.432;6.880;2023-02-28T06:41:12;102293.00;;;20.90
12061;BMP180;6091;51.432;6.880;2023-02-28T06:43:41;102289.00;;;20.90
12061;BMP180;6091;51.432;6.880;2023-02-28T06:46:13;102288.00;;;21.10
12061;BMP180;6091;51.432;6.880;2023-02-28T06:48:43;102294.00;;;21.20
12061;BMP180;6091;51.432;6.880;2023-02-28T06:51:18;102300.00;;;21.40
12061;BMP180;6091;51.432;6.880;2023-02-28T06:53:47;102302.00;;;21.60
12061;BMP180;6091;51.432;6.880;2023-02-28T06:56:16;102286.00;;;21.70
12061;BMP180;6091;51.432;6.880;2023-02-28T06:58:48;102308.00;;;21.90
12061;BMP180;6091;51.432;6.880;2023-02-28T07:01:16;102302.00;;;22.00
12061;BMP180;6091;51.432;6.880;2023-02-28T07:03:44;102311.00;;;22.20
12061;BMP180;6091;51.432;6.880;2023-02-28T07:06:11;102310.00;;;22.40
12061;BMP180;6091;51.432;6.880;2023-02-28T07:08:38;102312.00;;;22.50
12061;BMP180;6091;51.432;6.880;2023-02-28T07:11:07;102311.00;;;22.60
12061;BMP180;6091;51.432;6.880;2023-02-28T07:13:35;102314.00;;;22.70
12061;BMP180;6091;51.432;6.880;2023-02-28T07:16:06;102310.00;;;22.70
12061;BMP180;6091;51.432;6.880;2023-02-28T07:18:35;102312.00;;;22.60
12061;BMP180;6091;51.432;6.880;2023-02-28T07:21:08;102314.00;;;22.60
12061;BMP180;6091;51.432;6.880;2023-02-28T07:23:37;102315.00;;;22.60
12061;BMP180;6091;51.432;6.880;2023-02-28T07:26:12;102322.00;;;22.50
12061;BMP180;6091;51.432;6.880;2023-02-28T07:28:42;102321.00;;;22.50
12061;BMP180;6091;51.432;6.880;2023-02-28T07:31:11;102326.00;;;22.60
12061;BMP180;6091;51.432;6.880;2023-02-28T07:33:41;102325.00;;;22.70
12061;BMP180;6091;51.432;6.880;2023-02-28T07:36:13;102332.00;;;22.80
12061;BMP180;6091;51.432;6.880;2023-02-28T07:38:44;102328.00;;;23.00
12061;BMP180;6091;51.432;6.880;2023-02-28T07:41:17;102327.00;;;23.10
12061;BMP180;6091;51.432;6.880;2023-02-28T07:43:45;102331.00;;;23.30
12061;BMP180;6091;51.432;6.880;2023-02-28T07:46:15;102336.00;;;23.40
12061;BMP180;6091;51.432;6.880;2023-02-28T07:48:44;102325.00;;;23.60
12061;BMP180;6091;51.432;6.880;2023-02-28T07:51:11;102330.00;;;23.70
12061;BMP180;6091;51.432;6.880;2023-02-28T07:53:38;102341.00;;;23.80
12061;BMP180;6091;51.432;6.880;2023-02-28T07:56:06;102332.00;;;24.00
12061;BMP180;6091;51.432;6.880;2023-02-28T07:58:33;102337.00;;;24.10
12061;BMP180;6091;51.432;6.880;2023-02-28T08:01:10;102341.00;;;24.20
12061;BMP180;6091;51.432;6.880;2023-02-28T08:03:38;102342.00;;;24.30
12061;BMP180;6091;51.432;6.880;2023-02-28T08:06:18;102347.00;;;24.50
12061;BMP180;6091;51.432;6.880;2023-02-28T08:08:46;102346.00;;;24.50
12061;BMP180;6091;51.432;6.880;2023-02-28T08:11:15;102349.00;;;24.60
12061;BMP180;6091;51.432;6.880;2023-02-28T08:13:44;102352.00;;;24.70
12061;BMP180;6091;51.432;6.880;2023-02-28T08:16:13;102349.00;;;24.80
12061;BMP180;6091;51.432;6.880;2023-02-28T08:18:52;102355.00;;;24.90
12061;BMP180;6091;51.432;6.880;2023-02-28T08:21:21;102358.00;;;24.90
12061;BMP180;6091;51.432;6.880;2023-02-28T08:23:50;102354.00;;;25.00
12061;BMP180;6091;51.432;6.880;2023-02-28T08:26:18;102345.00;;;25.10
12061;BMP180;6091;51.432;6.880;2023-02-28T08:28:46;102362.00;;;25.10
12061;BMP180;6091;51.432;6.880;2023-02-28T08:31:16;102364.00;;;25.20
12061;BMP180;6091;51.432;6.880;2023-02-28T08:33:43;102366.00;;;25.20
12061;BMP180;6091;51.432;6.880;2023-02-28T08:36:11;102352.00;;;25.20
12061;BMP180;6091;51.432;6.880;2023-02-28T08:38:39;102359.00;;;25.30
12061;BMP180;6091;51.432;6.880;2023-02-28T08:41:10;102358.00;;;25.30
12061;BMP180;6091;51.432;6.880;2023-02-28T08:43:39;102354.00;;;25.30
12061;BMP180;6091;51.432;6.880;2023-02-28T08:46:07;102353.00;;;25.40
12061;BMP180;6091;51.432;6.880;2023-02-28T08:48:35;102360.00;;;25.40
12061;BMP180;6091;51.432;6.880;2023-02-28T08:51:08;102361.00;;;25.40
12061;BMP180;6091;51.432;6.880;2023-02-28T08:53:37;102350.00;;;25.40
12061;BMP180;6091;51.432;6.880;2023-02-28T08:56:16;102351.00;;;25.50
12061;BMP180;6091;51.432;6.880;2023-02-28T08:58:48;102348.00;;;25.50
12061;BMP180;6091;51.432;6.880;2023-02-28T09:01:22;102359.00;;;25.50
12061;BMP180;6091;51.432;6.880;2023-02-28T09:03:51;102346.00;;;25.50
12061;BMP180;6091;51.432;6.880;2023-02-28T09:06:22;102343.00;;;25.50
12061;BMP180;6091;51.432;6.880;2023-02-28T09:08:49;102350.00;;;25.50
12061;BMP180;6091;51.432;6.880;2023-02-28T09:11:17;102346.00;;;25.60
12061;BMP180;6091;51.432;6.880;2023-02-28T09:13:46;102350.00;;;25.60
12061;BMP180;6091;51.432;6.880;2023-02-28T09:16:15;102341.00;;;25.60
12061;BMP180;6091;51.432;6.880;2023-02-28T09:18:44;102341.00;;;25.60
12061;BMP180;6091;51.432;6.880;2023-02-28T09:21:14;102338.00;;;25.60
12061;BMP180;6091;51.432;6.880;2023-02-28T09:23:47;102334.00;;;25.60
12061;BMP180;6091;51.432;6.880;2023-02-28T09:26:25;102340.00;;;25.60
12061;BMP180;6091;51.432;6.880;2023-02-28T09:28:55;102341.00;;;25.90
12061;BMP180;6091;51.432;6.880;2023-02-28T09:31:27;102332.00;;;25.80
12061;BMP180;6091;51.432;6.880;2023-02-28T09:33:57;102342.00;;;25.80
12061;BMP180;6091;51.432;6.880;2023-02-28T09:36:26;102339.00;;;25.80
12061;BMP180;6091;51.432;6.880;2023-02-28T09:39:09;102333.00;;;25.80
12061;BMP180;6091;51.432;6.880;2023-02-28T09:41:41;102336.00;;;25.90
12061;BMP180;6091;51.432;6.880;2023-02-28T09:44:36;102353.00;;;26.00
12061;BMP180;6091;51.432;6.880;2023-02-28T09:47:32;102333.00;;;26.10
12061;BMP180;6091;51.432;6.880;2023-02-28T09:50:28;102344.00;;;26.20
12061;BMP180;6091;51.432;6.880;2023-02-28T09:52:57;102336.00;;;26.30
12061;BMP180;6091;51.432;6.880;2023-02-28T10:01:44;102349.00;;;26.60
12061;BMP180;6091;51.432;6.880;2023-02-28T10:11:07;102342.00;;;26.90
12061;BMP180;6091;51.432;6.880;2023-02-28T10:16:19;102340.00;;;27.10
12061;BMP180;6091;51.432;6.880;2023-02-28T10:18:59;102334.00;;;27.20
12061;BMP180;6091;51.432;6.880;2023-02-28T10:24:39;102338.00;;;27.50
12061;BMP180;6091;51.432;6.880;2023-02-28T10:27:32;102332.00;;;27.60
12061;BMP180;6091;51.432;6.880;2023-02-28T10:30:01;102339.00;;;27.70
12061;BMP180;6091;51.432;6.880;2023-02-28T10:32:34;102355.00;;;27.80
12061;BMP180;6091;51.432;6.880;2023-02-28T10:37:44;102339.00;;;27.80
12061;BMP180;6091;51.432;6.880;2023-02-28T10:46:04;102338.00;;;27.90
12061;BMP180;6091;51.432;6.880;2023-02-28T10:48:40;102338.00;;;27.90
12061;BMP180;6091;51.432;6.880;2023-02-28T10:51:15;102324.00;;;28.00
12061;BMP180;6091;51.432;6.880;2023-02-28T10:56:27;102325.00;;;28.00
12061;BMP180;6091;51.432;6.880;2023-02-28T11:01:44;102328.00;;;28.10
12061;BMP180;6091;51.432;6.880;2023-02-28T11:07:18;102318.00;;;28.30
12061;BMP180;6091;51.432;6.880;2023-02-28T11:09:54;102316.00;;;28.50
12061;BMP180;6091;51.432;6.880;2023-02-28T11:15:24;102323.00;;;29.00
12061;BMP180;6091;51.432;6.880;2023-02-28T11:17:59;102333.00;;;29.10
12061;BMP180;6091;51.432;6.880;2023-02-28T11:20:33;102328.00;;;29.20
12061;BMP180;6091;51.432;6.880;2023-02-28T11:23:04;102322.00;;;29.40
12061;BMP180;6091;51.432;6.880;2023-02-28T11:25:35;102324.00;;;29.50
12061;BMP180;6091;51.432;6.880;2023-02-28T11:31:16;102328.00;;;29.90
12061;BMP180;6091;51.432;6.880;2023-02-28T11:33:52;102329.00;;;30.20
12061;BMP180;6091;51.432;6.880;2023-02-28T11:36:27;102322.00;;;30.40
12061;BMP180;6091;51.432;6.880;2023-02-28T11:39:10;102334.00;;;30.60
12061;BMP180;6091;51.432;6.880;2023-02-28T11:45:57;102320.00;;;31.20
12061;BMP180;6091;51.432;6.880;2023-02-28T11:48:27;102332.00;;;31.50
12061;BMP180;6091;51.432;6.880;2023-02-28T11:51:35;102332.00;;;31.30
12061;BMP180;6091;51.432;6.880;2023-02-28T11:54:20;102329.00;;;31.40
12061;BMP180;6091;51.432;6.880;2023-02-28T11:57:32;102326.00;;;31.50
12061;BMP180;6091;51.432;6.880;2023-02-28T12:03:42;102317.00;;;31.70
12061;BMP180;6091;51.432;6.880;2023-02-28T12:13:12;102309.00;;;32.00
12061;BMP180;6091;51.432;6.880;2023-02-28T12:19:37;102303.00;;;32.20
12061;BMP180;6091;51.432;6.880;2023-02-28T12:22:00;102301.00;;;32.20
12061;BMP180;6091;51.432;6.880;2023-02-28T12:27:46;102294.00;;;32.40
12061;BMP180;6091;51.432;6.880;2023-02-28T12:30:23;102281.00;;;32.40
12061;BMP180;6091;51.432;6.880;2023-02-28T12:33:09;102281.00;;;32.40
12061;BMP180;6091;51.432;6.880;2023-02-28T12:35:53;102288.00;;;32.50
12061;BMP180;6091;51.432;6.880;2023-02-28T12:38:31;102282.00;;;32.50
12061;BMP180;6091;51.432;6.880;2023-02-28T12:41:42;102271.00;;;32.50
12061;BMP180;6091;51.432;6.880;2023-02-28T12:44:31;102279.00;;;32.60
12061;BMP180;6091;51.432;6.880;2023-02-28T12:47:11;102268.00;;;32.60
12061;BMP180;6091;51.432;6.880;2023-02-28T12:49:50;102266.00;;;32.70
12061;BMP180;6091;51.432;6.880;2023-02-28T12:55:11;102263.00;;;32.80
12061;BMP180;6091;51.432;6.880;2023-02-28T13:00:20;102244.00;;;33.10
12061;BMP180;6091;51.432;6.880;2023-02-28T13:03:20;102237.00;;;33.00
12061;BMP180;6091;51.432;6.880;2023-02-28T13:06:37;102254.00;;;33.10
12061;BMP180;6091;51.432;6.880;2023-02-28T13:09:15;102238.00;;;33.10
12061;BMP180;6091;51.432;6.880;2023-02-28T13:11:52;102237.00;;;33.20
12061;BMP180;6091;51.432;6.880;2023-02-28T13:14:38;102251.00;;;33.20
12061;BMP180;6091;51.432;6.880;2023-02-28T13:22:37;102234.00;;;33.30
12061;BMP180;6091;51.432;6.880;2023-02-28T13:28:02;102231.00;;;33.20
12061;BMP180;6091;51.432;6.880;2023-02-28T13:33:34;102230.00;;;33.10
12061;BMP180;6091;51.432;6.880;2023-02-28T13:38:50;102211.00;;;32.80
12061;BMP180;6091;51.432;6.880;2023-02-28T13:49:28;102203.00;;;32.00
12061;BMP180;6091;51.432;6.880;2023-02-28T13:58:09;102202.00;;;31.40
12061;BMP180;6091;51.432;6.880;2023-02-28T14:07:00;102194.00;;;31.00
12061;BMP180;6091;51.432;6.880;2023-02-28T14:09:39;102198.00;;;30.90
12061;BMP180;6091;51.432;6.880;2023-02-28T14:17:56;102195.00;;;30.60
12061;BMP180;6091;51.432;6.880;2023-02-28T14:20:27;102197.00;;;30.60
12061;BMP180;6091;51.432;6.880;2023-02-28T14:29:23;102188.00;;;30.20
12061;BMP180;6091;51.432;6.880;2023-02-28T14:37:44;102185.00;;;30.10
12061;BMP180;6091;51.432;6.880;2023-02-28T14:40:34;102184.00;;;30.40
12061;BMP180;6091;51.432;6.880;2023-02-28T14:43:19;102178.00;;;30.20
12061;BMP180;6091;51.432;6.880;2023-02-28T14:45:58;102187.00;;;30.10
12061;BMP180;6091;51.432;6.880;2023-02-28T14:48:26;102185.00;;;30.00
12061;BMP180;6091;51.432;6.880;2023-02-28T14:50:59;102183.00;;;30.00
12061;BMP180;6091;51.432;6.880;2023-02-28T14:53:36;102182.00;;;29.90
12061;BMP180;6091;51.432;6.880;2023-02-28T14:56:05;102186.00;;;29.90
12061;BMP180;6091;51.432;6.880;2023-02-28T14:58:34;102184.00;;;29.90
12061;BMP180;6091;51.432;6.880;2023-02-28T15:01:03;102182.00;;;29.80
12061;BMP180;6091;51.432;6.880;2023-02-28T15:03:33;102188.00;;;29.80
12061;BMP180;6091;51.432;6.880;2023-02-28T15:06:17;102163.00;;;29.70
12061;BMP180;6091;51.432;6.880;2023-02-28T15:08:45;102173.00;;;29.70
12061;BMP180;6091;51.432;6.880;2023-02-28T15:11:21;102168.00;;;29.80
12061;BMP180;6091;51.432;6.880;2023-02-28T15:13:53;102173.00;;;29.70
12061;BMP180;6091;51.432;6.880;2023-02-28T15:19:26;102180.00;;;29.60
12061;BMP180;6091;51.432;6.880;2023-02-28T15:22:10;102164.00;;;29.50
12061;BMP180;6091;51.432;6.880;2023-02-28T15:24:47;102165.00;;;29.40
12061;BMP180;6091;51.432;6.880;2023-02-28T15:27:25;102169.00;;;29.30
12061;BMP180;6091;51.432;6.880;2023-02-28T15:30:06;102163.00;;;29.10
12061;BMP180;6091;51.432;6.880;2023-02-28T15:32:37;102178.00;;;28.90
12061;BMP180;6091;51.432;6.880;2023-02-28T15:40:30;102163.00;;;28.50
12061;BMP180;6091;51.432;6.880;2023-02-28T15:43:16;102161.00;;;28.50
12061;BMP180;6091;51.432;6.880;2023-02-28T15:45:50;102161.00;;;28.40
12061;BMP180;6091;51.432;6.880;2023-02-28T15:48:26;102158.00;;;28.40
12061;BMP180;6091;51.432;6.880;2023-02-28T15:50:57;102164.00;;;28.40
12061;BMP180;6091;51.432;6.880;2023-02-28T15:53:40;102157.00;;;28.40
12061;BMP180;6091;51.432;6.880;2023-02-28T15:56:43;102160.00;;;28.30
12061;BMP180;6091;51.432;6.880;2023-02-28T15:59:30;102154.00;;;28.40
12061;BMP180;6091;51.432;6.880;2023-02-28T16:04:54;102161.00;;;28.40
12061;BMP180;6091;51.432;6.880;2023-02-28T16:07:21;102157.00;;;28.50
12061;BMP180;6091;51.432;6.880;2023-02-28T16:09:48;102160.00;;;28.50
12061;BMP180;6091;51.432;6.880;2023-02-28T16:12:16;102161.00;;;28.50
12061;BMP180;6091;51.432;6.880;2023-02-28T16:14:43;102163.00;;;28.60
12061;BMP180;6091;51.432;6.880;2023-02-28T16:17:22;102158.00;;;28.60
12061;BMP180;6091;51.432;6.880;2023-02-28T16:19:49;102171.00;;;28.50
12061;BMP180;6091;51.432;6.880;2023-02-28T16:22:17;102166.00;;;28.50
12061;BMP180;6091;51.432;6.880;2023-02-28T16:24:44;102186.00;;;28.50
12061;BMP180;6091;51.432;6.880;2023-02-28T16:27:33;102174.00;;;28.60
12061;BMP180;6091;51.432;6.880;2023-02-28T16:30:05;102163.00;;;28.60
12061;BMP180;6091;51.432;6.880;2023-02-28T16:32:35;102171.00;;;28.60
12061;BMP180;6091;51.432;6.880;2023-02-28T16:35:05;102175.00;;;28.60
12061;BMP180;6091;51.432;6.880;2023-02-28T16:37:36;102173.00;;;28.60
12061;BMP180;6091;51.432;6.880;2023-02-28T16:40:04;102182.00;;;28.50
12061;BMP180;6091;51.432;6.880;2023-02-28T16:42:32;102181.00;;;28.50
12061;BMP180;6091;51.432;6.880;2023-02-28T16:44:59;102181.00;;;28.50
12061;BMP180;6091;51.432;6.880;2023-02-28T16:47:26;102188.00;;;28.40
12061;BMP180;6091;51.432;6.880;2023-02-28T16:49:53;102190.00;;;28.40
12061;BMP180;6091;51.432;6.880;2023-02-28T16:52:20;102193.00;;;28.30
12061;BMP180;6091;51.432;6.880;2023-02-28T16:54:47;102188.00;;;28.30
12061;BMP180;6091;51.432;6.880;2023-02-28T16:57:21;102187.00;;;28.30
12061;BMP180;6091;51.432;6.880;2023-02-28T16:59:50;102191.00;;;28.20
12061;BMP180;6091;51.432;6.880;2023-02-28T17:02:20;102190.00;;;28.10
12061;BMP180;6091;51.432;6.880;2023-02-28T17:04:47;102198.00;;;28.10
12061;BMP180;6091;51.432;6.880;2023-02-28T17:07:16;102198.00;;;28.10
12061;BMP180;6091;51.432;6.880;2023-02-28T17:09:44;102199.00;;;28.00
12061;BMP180;6091;51.432;6.880;2023-02-28T17:12:12;102191.00;;;28.00
12061;BMP180;6091;51.432;6.880;2023-02-28T17:14:40;102201.00;;;27.90
12061;BMP180;6091;51.432;6.880;2023-02-28T17:17:12;102203.00;;;27.90
12061;BMP180;6091;51.432;6.880;2023-02-28T17:19:42;102196.00;;;27.80